sensor_id;sensor_type;location;lat;lon;timestamp;pressure;altitude;pressure_sealevel;temperature;humidity
62680;BME280;68213;40.528;44.712;2023-05-29T00:00:20;80463.81;;;11.68;61.57
62680;BME280;68213;40.528;44.712;2023-05-29T00:01:21;80484.50;;;11.88;61.63
62680;BME280;68213;40.528;44.712;2023-05-29T00:02:24;80484.19;;;11.82;61.72
62680;BME280;68213;40.528;44.712;2023-05-29T00:03:25;80485.28;;;11.77;62.01
62680;BME280;68213;40.528;44.712;2023-05-29T00:04:29;80463.53;;;11.62;62.19
62680;BME280;68213;40.528;44.712;2023-05-29T00:05:29;80482.75;;;11.79;61.84
62680;BME280;68213;40.528;44.712;2023-05-29T00:06:30;80488.03;;;11.79;61.67
62680;BME280;68213;40.528;44.712;2023-05-29T00:07:33;80464.78;;;11.61;61.99
62680;BME280;68213;40.528;44.712;2023-05-29T00:08:34;80473.69;;;11.68;62.22
62680;BME280;68213;40.528;44.712;2023-05-29T00:09:35;80482.53;;;11.74;62.20
62680;BME280;68213;40.528;44.712;2023-05-29T00:10:36;80480.41;;;11.71;62.52
62680;BME280;68213;40.528;44.712;2023-05-29T00:11:37;80492.91;;;11.70;62.27
62680;BME280;68213;40.528;44.712;2023-05-29T00:12:38;80470.66;;;11.59;62.27
62680;BME280;68213;40.528;44.712;2023-05-29T00:13:39;80489.00;;;11.71;62.12
62680;BME280;68213;40.528;44.712;2023-05-29T00:14:40;80487.91;;;11.77;62.15
62680;BME280;68213;40.528;44.712;2023-05-29T00:15:41;80488.69;;;11.79;61.56
62680;BME280;68213;40.528;44.712;2023-05-29T00:16:41;80490.84;;;11.83;61.73
62680;BME280;68213;40.528;44.712;2023-05-29T00:17:47;80484.97;;;11.84;61.79
62680;BME280;68213;40.528;44.712;2023-05-29T00:18:47;80481.19;;;11.87;61.65
62680;BME280;68213;40.528;44.712;2023-05-29T00:19:48;80481.28;;;11.89;61.56
62680;BME280;68213;40.528;44.712;2023-05-29T00:20:49;80482.25;;;11.96;61.32
62680;BME280;68213;40.528;44.712;2023-05-29T00:21:49;80481.56;;;11.96;61.18
62680;BME280;68213;40.528;44.712;2023-05-29T00:22:50;80481.28;;;12.03;61.06
62680;BME280;68213;40.528;44.712;2023-05-29T00:23:51;80474.84;;;12.06;60.96
62680;BME280;68213;40.528;44.712;2023-05-29T00:24:51;80476.31;;;12.10;61.03
62680;BME280;68213;40.528;44.712;2023-05-29T00:25:52;80475.03;;;12.11;60.94
62680;BME280;68213;40.528;44.712;2023-05-29T00:26:53;80473.19;;;12.13;60.74
62680;BME280;68213;40.528;44.712;2023-05-29T00:27:54;80481.78;;;12.14;60.69
62680;BME280;68213;40.528;44.712;2023-05-29T00:28:54;80485.28;;;12.18;60.51
62680;BME280;68213;40.528;44.712;2023-05-29T00:29:55;80478.16;;;12.21;60.21
62680;BME280;68213;40.528;44.712;2023-05-29T00:30:56;80481.06;;;12.27;60.16
62680;BME280;68213;40.528;44.712;2023-05-29T00:31:56;80479.69;;;12.26;60.43
62680;BME280;68213;40.528;44.712;2023-05-29T00:32:57;80474.44;;;12.26;60.25
62680;BME280;68213;40.528;44.712;2023-05-29T00:34:00;80473.88;;;12.28;60.42
62680;BME280;68213;40.528;44.712;2023-05-29T00:35:00;80479.31;;;12.32;60.14
62680;BME280;68213;40.528;44.712;2023-05-29T00:36:01;80482.44;;;12.28;60.48
62680;BME280;68213;40.528;44.712;2023-05-29T00:37:02;80445.00;;;12.02;60.32
62680;BME280;68213;40.528;44.712;2023-05-29T00:38:03;80483.50;;;12.37;60.29
62680;BME280;68213;40.528;44.712;2023-05-29T00:39:03;80491.41;;;12.37;60.58
62680;BME280;68213;40.528;44.712;2023-05-29T00:40:05;80483.59;;;12.39;60.17
62680;BME280;68213;40.528;44.712;2023-05-29T00:41:05;80488.38;;;12.43;60.17
62680;BME280;68213;40.528;44.712;2023-05-29T00:42:06;80488.38;;;12.43;60.08
62680;BME280;68213;40.528;44.712;2023-05-29T00:43:10;80496.19;;;12.41;60.38
62680;BME280;68213;40.528;44.712;2023-05-29T00:44:11;80489.84;;;12.46;60.23
62680;BME280;68213;40.528;44.712;2023-05-29T00:45:12;80485.94;;;12.47;59.83
62680;BME280;68213;40.528;44.712;2023-05-29T00:46:15;80491.38;;;12.51;59.84
62680;BME280;68213;40.528;44.712;2023-05-29T00:47:16;80487.66;;;12.56;59.78
62680;BME280;68213;40.528;44.712;2023-05-29T00:48:17;80484.53;;;12.60;59.31
62680;BME280;68213;40.528;44.712;2023-05-29T00:49:18;80488.13;;;12.66;59.19
62680;BME280;68213;40.528;44.712;2023-05-29T00:50:21;80468.03;;;12.59;59.02
62680;BME280;68213;40.528;44.712;2023-05-29T00:51:22;80478.34;;;12.69;59.33
62680;BME280;68213;40.528;44.712;2023-05-29T00:52:24;80486.44;;;12.73;59.37
62680;BME280;68213;40.528;44.712;2023-05-29T00:53:26;80490.53;;;12.76;59.32
62680;BME280;68213;40.528;44.712;2023-05-29T00:54:29;80487.91;;;12.76;59.18
62680;BME280;68213;40.528;44.712;2023-05-29T00:55:33;80484.66;;;12.78;59.35
62680;BME280;68213;40.528;44.712;2023-05-29T00:56:34;80488.50;;;12.75;59.37
62680;BME280;68213;40.528;44.712;2023-05-29T00:57:36;80476.97;;;12.68;58.93
62680;BME280;68213;40.528;44.712;2023-05-29T00:58:41;80485.94;;;12.77;59.29
62680;BME280;68213;40.528;44.712;2023-05-29T00:59:42;80489.25;;;12.77;59.30
62680;BME280;68213;40.528;44.712;2023-05-29T01:00:43;80491.22;;;12.77;59.20
62680;BME280;68213;40.528;44.712;2023-05-29T01:01:44;80493.56;;;12.70;59.74
62680;BME280;68213;40.528;44.712;2023-05-29T01:02:45;80494.06;;;12.67;60.08
62680;BME280;68213;40.528;44.712;2023-05-29T01:03:46;80492.13;;;12.67;60.02
62680;BME280;68213;40.528;44.712;2023-05-29T01:04:49;80500.03;;;12.67;60.22
62680;BME280;68213;40.528;44.712;2023-05-29T01:05:50;80495.94;;;12.64;60.11
62680;BME280;68213;40.528;44.712;2023-05-29T01:06:52;80488.72;;;12.65;60.04
62680;BME280;68213;40.528;44.712;2023-05-29T01:07:53;80492.69;;;12.66;60.00
62680;BME280;68213;40.528;44.712;2023-05-29T01:08:53;80495.25;;;12.64;59.54
62680;BME280;68213;40.528;44.712;2023-05-29T01:09:54;80496.72;;;12.67;60.18
62680;BME280;68213;40.528;44.712;2023-05-29T01:11:00;80494.88;;;12.69;59.68
62680;BME280;68213;40.528;44.712;2023-05-29T01:12:43;80496.31;;;12.73;59.14
62680;BME280;68213;40.528;44.712;2023-05-29T01:13:45;80488.50;;;12.75;59.14
62680;BME280;68213;40.528;44.712;2023-05-29T01:15:16;80488.09;;;12.80;58.42
62680;BME280;68213;40.528;44.712;2023-05-29T01:16:31;80479.38;;;12.78;58.65
62680;BME280;68213;40.528;44.712;2023-05-29T01:19:01;80474.53;;;12.72;60.97
62680;BME280;68213;40.528;44.712;2023-05-29T01:20:26;80476.56;;;12.74;62.12
62680;BME280;68213;40.528;44.712;2023-05-29T01:27:15;80464.38;;;12.66;60.87
62680;BME280;68213;40.528;44.712;2023-05-29T01:28:22;80466.44;;;12.68;61.04
62680;BME280;68213;40.528;44.712;2023-05-29T01:29:28;80476.69;;;12.62;60.15
62680;BME280;68213;40.528;44.712;2023-05-29T01:30:32;80474.94;;;12.66;60.48
62680;BME280;68213;40.528;44.712;2023-05-29T01:31:34;80470.44;;;12.69;60.01
62680;BME280;68213;40.528;44.712;2023-05-29T01:32:36;80479.13;;;12.72;60.08
62680;BME280;68213;40.528;44.712;2023-05-29T01:33:41;80476.31;;;12.67;60.91
62680;BME280;68213;40.528;44.712;2023-05-29T01:34:41;80478.44;;;12.71;60.27
62680;BME280;68213;40.528;44.712;2023-05-29T01:35:42;80487.72;;;12.72;60.66
62680;BME280;68213;40.528;44.712;2023-05-29T01:36:43;80489.75;;;12.74;60.64
62680;BME280;68213;40.528;44.712;2023-05-29T01:37:43;80486.34;;;12.71;60.97
62680;BME280;68213;40.528;44.712;2023-05-29T01:38:44;80489.75;;;12.74;60.79
62680;BME280;68213;40.528;44.712;2023-05-29T01:39:45;80484.50;;;12.74;61.33
62680;BME280;68213;40.528;44.712;2023-05-29T01:40:46;80489.75;;;12.74;60.87
62680;BME280;68213;40.528;44.712;2023-05-29T01:41:51;80494.28;;;12.71;61.16
62680;BME280;68213;40.528;44.712;2023-05-29T01:42:53;80493.50;;;12.68;61.38
62680;BME280;68213;40.528;44.712;2023-05-29T01:43:56;80492.22;;;12.69;61.40
62680;BME280;68213;40.528;44.712;2023-05-29T01:44:59;80492.03;;;12.65;61.50
62680;BME280;68213;40.528;44.712;2023-05-29T01:46:00;80496.13;;;12.68;61.05
62680;BME280;68213;40.528;44.712;2023-05-29T01:47:02;80504.13;;;12.70;60.64
62680;BME280;68213;40.528;44.712;2023-05-29T01:48:04;80492.31;;;12.72;60.53
62680;BME280;68213;40.528;44.712;2023-05-29T01:49:05;80494.28;;;12.71;61.09
62680;BME280;68213;40.528;44.712;2023-05-29T01:50:06;80475.84;;;12.57;60.49
62680;BME280;68213;40.528;44.712;2023-05-29T01:51:12;80493.06;;;12.74;60.30
62680;BME280;68213;40.528;44.712;2023-05-29T01:52:12;80488.66;;;12.79;59.56
62680;BME280;68213;40.528;44.712;2023-05-29T01:53:13;80492.66;;;12.80;59.89
62680;BME280;68213;40.528;44.712;2023-05-29T01:54:14;80491.91;;;12.77;60.42
62680;BME280;68213;40.528;44.712;2023-05-29T01:55:15;80488.09;;;12.80;60.02
62680;BME280;68213;40.528;44.712;2023-05-29T01:56:16;80495.31;;;12.80;60.47
62680;BME280;68213;40.528;44.712;2023-05-29T01:57:17;80501.94;;;12.81;60.74
62680;BME280;68213;40.528;44.712;2023-05-29T01:58:20;80497.34;;;12.81;60.78
62680;BME280;68213;40.528;44.712;2023-05-29T01:59:22;80501.34;;;12.82;60.90
62680;BME280;68213;40.528;44.712;2023-05-29T02:00:23;80497.34;;;12.81;60.51
62680;BME280;68213;40.528;44.712;2023-05-29T02:01:26;80490.22;;;12.84;60.80
62680;BME280;68213;40.528;44.712;2023-05-29T02:02:27;80490.22;;;12.84;60.60
62680;BME280;68213;40.528;44.712;2023-05-29T02:03:27;80492.28;;;12.85;60.74
62680;BME280;68213;40.528;44.712;2023-05-29T02:04:31;80489.63;;;12.85;60.67
62680;BME280;68213;40.528;44.712;2023-05-29T02:05:32;80499.47;;;12.85;60.98
62680;BME280;68213;40.528;44.712;2023-05-29T02:06:32;80496.19;;;12.84;60.91
62680;BME280;68213;40.528;44.712;2023-05-29T02:07:37;80499.59;;;12.87;60.84
62680;BME280;68213;40.528;44.712;2023-05-29T02:08:41;80504.00;;;12.82;60.88
62680;BME280;68213;40.528;44.712;2023-05-29T02:09:42;80506.63;;;12.82;60.30
62680;BME280;68213;40.528;44.712;2023-05-29T02:10:42;80506.06;;;12.84;60.73
62680;BME280;68213;40.528;44.712;2023-05-29T02:11:43;80508.69;;;12.84;60.92
62680;BME280;68213;40.528;44.712;2023-05-29T02:12:46;80512.59;;;12.83;60.72
62680;BME280;68213;40.528;44.712;2023-05-29T02:13:46;80507.91;;;12.81;60.55
62680;BME280;68213;40.528;44.712;2023-05-29T02:14:47;80505.19;;;12.79;60.47
62680;BME280;68213;40.528;44.712;2023-05-29T02:15:48;80511.13;;;12.80;60.92
62680;BME280;68213;40.528;44.712;2023-05-29T02:16:49;80500.41;;;12.76;60.25
62680;BME280;68213;40.528;44.712;2023-05-29T02:17:50;80508.59;;;12.82;59.97
62680;BME280;68213;40.528;44.712;2023-05-29T02:18:50;80503.31;;;12.82;60.45
62680;BME280;68213;40.528;44.712;2023-05-29T02:20:11;80500.78;;;12.84;60.09
62680;BME280;68213;40.528;44.712;2023-05-29T02:21:12;80503.50;;;12.86;60.19
62680;BME280;68213;40.528;44.712;2023-05-29T02:22:13;80500.84;;;12.86;60.45
62680;BME280;68213;40.528;44.712;2023-05-29T02:23:14;80501.06;;;12.90;60.39
62680;BME280;68213;40.528;44.712;2023-05-29T02:24:15;80502.31;;;12.89;60.54
62680;BME280;68213;40.528;44.712;2023-05-29T02:25:16;80496.34;;;12.89;60.71
62680;BME280;68213;40.528;44.712;2023-05-29T02:26:16;80502.22;;;12.87;60.88
62680;BME280;68213;40.528;44.712;2023-05-29T02:27:17;80498.22;;;12.86;60.87
62680;BME280;68213;40.528;44.712;2023-05-29T02:28:18;80500.94;;;12.88;61.08
62680;BME280;68213;40.528;44.712;2023-05-29T02:29:18;80506.91;;;12.89;60.70
62680;BME280;68213;40.528;44.712;2023-05-29T02:30:19;80499.59;;;12.87;60.61
62680;BME280;68213;40.528;44.712;2023-05-29T02:31:20;80499.59;;;12.87;60.32
62680;BME280;68213;40.528;44.712;2023-05-29T02:32:20;80495.81;;;12.76;60.71
62680;BME280;68213;40.528;44.712;2023-05-29T02:33:22;80498.03;;;12.82;60.93
62680;BME280;68213;40.528;44.712;2023-05-29T02:34:23;80498.03;;;12.82;61.21
62680;BME280;68213;40.528;44.712;2023-05-29T02:35:24;80498.72;;;12.82;60.39
62680;BME280;68213;40.528;44.712;2023-05-29T02:36:24;80488.66;;;12.79;60.08
62680;BME280;68213;40.528;44.712;2023-05-29T02:37:26;80504.84;;;12.87;60.11
62680;BME280;68213;40.528;44.712;2023-05-29T02:38:26;80502.41;;;12.91;59.66
62680;BME280;68213;40.528;44.712;2023-05-29T02:39:27;80489.38;;;12.79;60.54
62680;BME280;68213;40.528;44.712;2023-05-29T02:40:27;80503.84;;;12.94;61.09
62680;BME280;68213;40.528;44.712;2023-05-29T02:41:28;80504.06;;;12.98;60.47
62680;BME280;68213;40.528;44.712;2023-05-29T02:42:29;80501.59;;;13.02;60.31
62680;BME280;68213;40.528;44.712;2023-05-29T02:43:30;80503.72;;;13.06;60.31
62680;BME280;68213;40.528;44.712;2023-05-29T02:44:30;80502.03;;;13.13;60.12
62680;BME280;68213;40.528;44.712;2023-05-29T02:45:31;80498.13;;;13.14;60.00
62680;BME280;68213;40.528;44.712;2023-05-29T02:46:31;80498.22;;;13.16;59.80
62680;BME280;68213;40.528;44.712;2023-05-29T02:47:32;80497.63;;;13.17;59.72
62680;BME280;68213;40.528;44.712;2023-05-29T02:48:34;80501.72;;;13.21;59.38
62680;BME280;68213;40.528;44.712;2023-05-29T02:49:35;80499.84;;;13.23;59.54
62680;BME280;68213;40.528;44.712;2023-05-29T02:50:36;80498.91;;;13.16;59.88
62680;BME280;68213;40.528;44.712;2023-05-29T02:51:39;80505.88;;;13.26;60.11
62680;BME280;68213;40.528;44.712;2023-05-29T02:52:39;80482.81;;;13.10;60.20
62680;BME280;68213;40.528;44.712;2023-05-29T02:53:41;80499.25;;;13.25;59.23
62680;BME280;68213;40.528;44.712;2023-05-29T02:54:41;80500.69;;;13.28;59.34
62680;BME280;68213;40.528;44.712;2023-05-29T02:55:42;80501.66;;;13.35;58.43
62680;BME280;68213;40.528;44.712;2023-05-29T02:56:43;80494.13;;;13.43;57.98
62680;BME280;68213;40.528;44.712;2023-05-29T02:57:44;80491.63;;;13.47;58.89
62680;BME280;68213;40.528;44.712;2023-05-29T02:58:44;80486.63;;;13.53;58.29
62680;BME280;68213;40.528;44.712;2023-05-29T02:59:45;80478.13;;;13.55;58.72
62680;BME280;68213;40.528;44.712;2023-05-29T03:00:47;80487.31;;;13.70;57.55
62680;BME280;68213;40.528;44.712;2023-05-29T03:01:47;80484.91;;;13.76;56.70
62680;BME280;68213;40.528;44.712;2023-05-29T03:02:49;80482.72;;;13.86;56.41
62680;BME280;68213;40.528;44.712;2023-05-29T03:03:49;80484.94;;;13.92;57.25
62680;BME280;68213;40.528;44.712;2023-05-29T03:04:50;80489.94;;;14.02;56.04
62680;BME280;68213;40.528;44.712;2023-05-29T03:05:53;80488.81;;;14.07;56.81
62680;BME280;68213;40.528;44.712;2023-05-29T03:06:54;80483.97;;;14.17;56.21
62680;BME280;68213;40.528;44.712;2023-05-29T03:07:54;80489.63;;;14.27;55.78
62680;BME280;68213;40.528;44.712;2023-05-29T03:08:55;80493.03;;;14.30;55.77
62680;BME280;68213;40.528;44.712;2023-05-29T03:09:56;80489.13;;;14.31;55.61
62680;BME280;68213;40.528;44.712;2023-05-29T03:10:57;80487.56;;;14.42;55.45
62680;BME280;68213;40.528;44.712;2023-05-29T03:11:58;80494.41;;;14.47;56.13
62680;BME280;68213;40.528;44.712;2023-05-29T03:13:03;80489.44;;;14.55;56.55
62680;BME280;68213;40.528;44.712;2023-05-29T03:14:04;80495.13;;;14.66;56.34
62680;BME280;68213;40.528;44.712;2023-05-29T03:15:05;80493.47;;;14.74;56.63
62680;BME280;68213;40.528;44.712;2023-05-29T03:16:06;80488.34;;;14.79;58.10
62680;BME280;68213;40.528;44.712;2023-05-29T03:17:08;80488.88;;;14.75;57.92
62680;BME280;68213;40.528;44.712;2023-05-29T03:18:09;80485.84;;;14.83;57.48
62680;BME280;68213;40.528;44.712;2023-05-29T03:19:09;80495.91;;;14.86;57.37
62680;BME280;68213;40.528;44.712;2023-05-29T03:20:10;80485.63;;;14.95;57.24
62680;BME280;68213;40.528;44.712;2023-05-29T03:21:11;80483.31;;;15.03;56.86
62680;BME280;68213;40.528;44.712;2023-05-29T03:22:12;80483.31;;;15.03;56.52
62680;BME280;68213;40.528;44.712;2023-05-29T03:23:14;80484.97;;;15.12;56.43
62680;BME280;68213;40.528;44.712;2023-05-29T03:24:14;80482.47;;;15.16;56.83
62680;BME280;68213;40.528;44.712;2023-05-29T03:25:16;80482.63;;;15.20;56.80
62680;BME280;68213;40.528;44.712;2023-05-29T03:26:16;80487.41;;;15.24;57.72
62680;BME280;68213;40.528;44.712;2023-05-29T03:27:17;80490.72;;;15.25;58.53
62680;BME280;68213;40.528;44.712;2023-05-29T03:28:18;80489.59;;;15.30;58.09
62680;BME280;68213;40.528;44.712;2023-05-29T03:29:18;80487.09;;;15.34;58.06
62680;BME280;68213;40.528;44.712;2023-05-29T03:30:19;80494.41;;;15.35;58.04
62680;BME280;68213;40.528;44.712;2023-05-29T03:31:21;80491.31;;;15.41;58.04
62680;BME280;68213;40.528;44.712;2023-05-29T03:32:21;80498.59;;;15.41;58.59
62680;BME280;68213;40.528;44.712;2023-05-29T03:33:22;80501.16;;;15.38;57.71
62680;BME280;68213;40.528;44.712;2023-05-29T03:34:23;80500.56;;;15.40;57.24
62680;BME280;68213;40.528;44.712;2023-05-29T03:35:23;80439.53;;;15.00;57.80
62680;BME280;68213;40.528;44.712;2023-05-29T03:36:24;80501.69;;;15.35;57.56
62680;BME280;68213;40.528;44.712;2023-05-29T03:37:27;80500.31;;;15.34;58.59
62680;BME280;68213;40.528;44.712;2023-05-29T03:38:28;80496.94;;;15.31;59.09
62680;BME280;68213;40.528;44.712;2023-05-29T03:39:29;80506.81;;;15.13;60.27
62680;BME280;68213;40.528;44.712;2023-05-29T03:40:29;80502.28;;;15.15;61.29
62680;BME280;68213;40.528;44.712;2023-05-29T03:41:30;80512.44;;;15.21;60.27
62680;BME280;68213;40.528;44.712;2023-05-29T03:42:31;80511.97;;;15.27;60.52
62680;BME280;68213;40.528;44.712;2023-05-29T03:43:31;80510.09;;;15.29;61.01
62680;BME280;68213;40.528;44.712;2023-05-29T03:44:32;80505.41;;;15.28;60.81
62680;BME280;68213;40.528;44.712;2023-05-29T03:45:32;80506.59;;;15.25;60.45
62680;BME280;68213;40.528;44.712;2023-05-29T03:46:33;80503.44;;;15.28;60.33
62680;BME280;68213;40.528;44.712;2023-05-29T03:47:34;80506.25;;;15.32;60.14
62680;BME280;68213;40.528;44.712;2023-05-29T03:48:34;80501.78;;;15.37;60.35
62680;BME280;68213;40.528;44.712;2023-05-29T03:49:35;80508.56;;;15.42;61.07
62680;BME280;68213;40.528;44.712;2023-05-29T03:50:36;80507.44;;;15.47;60.93
62680;BME280;68213;40.528;44.712;2023-05-29T03:51:37;80506.00;;;15.44;60.20
62680;BME280;68213;40.528;44.712;2023-05-29T03:52:38;80506.78;;;15.29;60.89
62680;BME280;68213;40.528;44.712;2023-05-29T03:53:39;80516.84;;;15.32;60.41
62680;BME280;68213;40.528;44.712;2023-05-29T03:54:40;80513.56;;;15.34;60.33
62680;BME280;68213;40.528;44.712;2023-05-29T03:55:40;80515.59;;;15.35;61.52
62680;BME280;68213;40.528;44.712;2023-05-29T03:56:42;80521.81;;;15.42;60.27
62680;BME280;68213;40.528;44.712;2023-05-29T03:57:43;80527.66;;;15.38;60.30
62680;BME280;68213;40.528;44.712;2023-05-29T03:58:43;80524.59;;;15.46;59.74
62680;BME280;68213;40.528;44.712;2023-05-29T03:59:44;80522.72;;;15.49;59.81
62680;BME280;68213;40.528;44.712;2023-05-29T04:00:45;80532.63;;;15.48;59.34
62680;BME280;68213;40.528;44.712;2023-05-29T04:01:46;80522.03;;;15.48;59.91
62680;BME280;68213;40.528;44.712;2023-05-29T04:02:46;80534.31;;;15.58;59.32
62680;BME280;68213;40.528;44.712;2023-05-29T04:03:47;80527.66;;;15.57;61.35
62680;BME280;68213;40.528;44.712;2023-05-29T04:04:48;80531.03;;;15.59;59.21
62680;BME280;68213;40.528;44.712;2023-05-29T04:05:49;80537.25;;;15.66;58.87
62680;BME280;68213;40.528;44.712;2023-05-29T04:06:52;80533.53;;;15.73;57.99
62680;BME280;68213;40.528;44.712;2023-05-29T04:07:53;80540.22;;;15.74;60.08
62680;BME280;68213;40.528;44.712;2023-05-29T04:08:53;80535.03;;;15.78;57.83
62680;BME280;68213;40.528;44.712;2023-05-29T04:09:57;80536.56;;;15.83;57.30
62680;BME280;68213;40.528;44.712;2023-05-29T04:10:57;80527.00;;;15.76;57.83
62680;BME280;68213;40.528;44.712;2023-05-29T04:11:59;80540.44;;;15.80;57.44
62680;BME280;68213;40.528;44.712;2023-05-29T04:13:02;80543.31;;;15.86;56.92
62680;BME280;68213;40.528;44.712;2023-05-29T04:14:05;80544.59;;;15.85;59.72
62680;BME280;68213;40.528;44.712;2023-05-29T04:15:06;80543.94;;;15.67;57.58
62680;BME280;68213;40.528;44.712;2023-05-29T04:16:07;80545.50;;;15.38;58.78
62680;BME280;68213;40.528;44.712;2023-05-29T04:17:08;80544.16;;;15.37;59.27
62680;BME280;68213;40.528;44.712;2023-05-29T04:18:08;80544.16;;;15.37;59.88
62680;BME280;68213;40.528;44.712;2023-05-29T04:19:09;80544.28;;;15.23;60.38
62680;BME280;68213;40.528;44.712;2023-05-29T04:20:10;80553.16;;;15.30;59.43
62680;BME280;68213;40.528;44.712;2023-05-29T04:21:14;80534.63;;;15.30;59.32
62680;BME280;68213;40.528;44.712;2023-05-29T04:22:16;80543.22;;;15.48;55.34
62680;BME280;68213;40.528;44.712;2023-05-29T04:23:16;80548.53;;;15.48;51.20
62680;BME280;68213;40.528;44.712;2023-05-29T04:24:17;80550.13;;;15.55;53.21
62680;BME280;68213;40.528;44.712;2023-05-29T04:26:22;80554.66;;;15.71;52.09
62680;BME280;68213;40.528;44.712;2023-05-29T04:27:26;80546.84;;;15.75;49.99
62680;BME280;68213;40.528;44.712;2023-05-29T04:28:29;80549.56;;;15.77;48.51
62680;BME280;68213;40.528;44.712;2023-05-29T04:29:31;80540.25;;;15.76;48.88
62680;BME280;68213;40.528;44.712;2023-05-29T04:30:34;80549.56;;;15.77;48.04
62680;BME280;68213;40.528;44.712;2023-05-29T04:31:36;80540.97;;;15.77;48.62
62680;BME280;68213;40.528;44.712;2023-05-29T04:32:39;80548.91;;;15.77;48.81
62680;BME280;68213;40.528;44.712;2023-05-29T04:33:42;80549.81;;;15.83;47.48
62680;BME280;68213;40.528;44.712;2023-05-29T04:34:45;80548.84;;;15.93;47.86
62680;BME280;68213;40.528;44.712;2023-05-29T04:35:46;80546.88;;;15.93;47.85
62680;BME280;68213;40.528;44.712;2023-05-29T04:36:48;80546.19;;;15.93;47.30
62680;BME280;68213;40.528;44.712;2023-05-29T04:37:49;80544.91;;;15.94;47.00
62680;BME280;68213;40.528;44.712;2023-05-29T04:38:50;80547.41;;;15.90;46.95
62680;BME280;68213;40.528;44.712;2023-05-29T04:39:51;80547.63;;;15.96;46.68
62680;BME280;68213;40.528;44.712;2023-05-29T04:40:52;80525.88;;;15.81;47.44
62680;BME280;68213;40.528;44.712;2023-05-29T04:41:57;80540.63;;;16.05;47.21
62680;BME280;68213;40.528;44.712;2023-05-29T04:43:01;80545.31;;;16.06;47.30
62680;BME280;68213;40.528;44.712;2023-05-29T04:44:02;80553.22;;;16.04;46.34
62680;BME280;68213;40.528;44.712;2023-05-29T04:45:04;80531.72;;;15.96;46.10
62680;BME280;68213;40.528;44.712;2023-05-29T04:46:05;80532.06;;;16.06;46.69
62680;BME280;68213;40.528;44.712;2023-05-29T04:47:07;80533.84;;;15.99;46.15
62680;BME280;68213;40.528;44.712;2023-05-29T04:48:08;80549.94;;;16.06;45.58
62680;BME280;68213;40.528;44.712;2023-05-29T04:49:09;80545.31;;;16.06;46.33
62680;BME280;68213;40.528;44.712;2023-05-29T04:50:14;80549.34;;;16.07;46.55
62680;BME280;68213;40.528;44.712;2023-05-29T04:51:15;80548.84;;;15.93;46.02
62680;BME280;68213;40.528;44.712;2023-05-29T04:52:16;80560.59;;;15.88;45.83
62680;BME280;68213;40.528;44.712;2023-05-29T04:53:17;80564.44;;;15.84;45.99
62680;BME280;68213;40.528;44.712;2023-05-29T04:54:18;80569.75;;;15.84;46.51
62680;BME280;68213;40.528;44.712;2023-05-29T04:55:20;80553.69;;;15.80;46.65
62680;BME280;68213;40.528;44.712;2023-05-29T04:56:21;80561.00;;;15.82;46.58
62680;BME280;68213;40.528;44.712;2023-05-29T04:57:22;80543.84;;;15.65;46.58
62680;BME280;68213;40.528;44.712;2023-05-29T04:58:25;80533.53;;;15.73;46.78
62680;BME280;68213;40.528;44.712;2023-05-29T04:59:26;80559.66;;;15.81;46.57
62680;BME280;68213;40.528;44.712;2023-05-29T05:00:27;80573.97;;;15.92;46.48
62680;BME280;68213;40.528;44.712;2023-05-29T05:01:29;80552.00;;;15.89;45.54
62680;BME280;68213;40.528;44.712;2023-05-29T05:02:32;80560.34;;;15.99;46.25
62680;BME280;68213;40.528;44.712;2023-05-29T05:03:32;80554.63;;;16.07;46.61
62680;BME280;68213;40.528;44.712;2023-05-29T05:04:33;80510.75;;;15.66;45.96
62680;BME280;68213;40.528;44.712;2023-05-29T05:05:37;80564.25;;;16.16;46.17
62680;BME280;68213;40.528;44.712;2023-05-29T05:06:38;80567.38;;;16.11;45.52
62680;BME280;68213;40.528;44.712;2023-05-29T05:07:39;80563.34;;;16.10;45.00
62680;BME280;68213;40.528;44.712;2023-05-29T05:08:40;80564.88;;;16.15;45.49
62680;BME280;68213;40.528;44.712;2023-05-29T05:09:41;80569.16;;;16.24;45.19
62680;BME280;68213;40.528;44.712;2023-05-29T05:10:42;80556.78;;;16.31;45.38
62680;BME280;68213;40.528;44.712;2023-05-29T05:11:42;80562.31;;;16.37;46.10
62680;BME280;68213;40.528;44.712;2023-05-29T05:12:43;80566.00;;;16.48;45.64
62680;BME280;68213;40.528;44.712;2023-05-29T05:13:44;80563.00;;;16.58;45.49
62680;BME280;68213;40.528;44.712;2023-05-29T05:14:45;80555.47;;;16.70;46.00
62680;BME280;68213;40.528;44.712;2023-05-29T05:15:45;80565.03;;;16.79;45.26
62680;BME280;68213;40.528;44.712;2023-05-29T05:16:46;80560.50;;;16.82;44.68
62680;BME280;68213;40.528;44.712;2023-05-29T05:17:47;80556.28;;;16.95;44.88
62680;BME280;68213;40.528;44.712;2023-05-29T05:18:47;80547.09;;;16.98;44.44
62680;BME280;68213;40.528;44.712;2023-05-29T05:19:48;80550.13;;;17.10;44.47
62680;BME280;68213;40.528;44.712;2023-05-29T05:20:49;80557.50;;;17.12;44.25
62680;BME280;68213;40.528;44.712;2023-05-29T05:21:50;80548.22;;;17.13;43.47
62680;BME280;68213;40.528;44.712;2023-05-29T05:22:51;80547.94;;;17.25;43.53
62680;BME280;68213;40.528;44.712;2023-05-29T05:23:54;80544.13;;;17.30;44.28
62680;BME280;68213;40.528;44.712;2023-05-29T05:24:55;80548.59;;;17.46;44.61
62680;BME280;68213;40.528;44.712;2023-05-29T05:25:55;80525.53;;;17.30;42.63
62680;BME280;68213;40.528;44.712;2023-05-29T05:26:56;80530.97;;;17.34;43.01
62680;BME280;68213;40.528;44.712;2023-05-29T05:27:57;80551.19;;;17.43;43.15
62680;BME280;68213;40.528;44.712;2023-05-29T05:28:57;80561.53;;;17.35;44.57
62680;BME280;68213;40.528;44.712;2023-05-29T05:29:58;80557.03;;;17.40;43.76
62680;BME280;68213;40.528;44.712;2023-05-29T05:30:59;80560.50;;;17.44;43.40